Terminal Aerodrome Forecast
Issued by NWS Pendleton, OR

Home | Current Version | Previous Version | Text Only | Print | Product List | Glossary On
Versions: 1 2 3 4 5 6 7 8 9 10 11 12 13 14 15 16 17 18 19
909
FTUS46 KPDT 120722 AAB
TAFPDT
TAF AMD
KPDT 120722Z 1207/1306 VRB05KT 1SM BR BKN005 BKN100
      TEMPO 1207/1211 1/2SM FG VV002
     FM121800 VRB05KT 6SM BR BKN080
     FM122100 27008KT P6SM -SHRA OVC050=

USA.gov is the U.S. government's official web portal to all federal, state and local government web resources and services.